createdAt,value
2022-10-17T00:00:42.293Z,99.99
2022-10-17T00:01:42.271Z,99.99
2022-10-17T00:02:42.142Z,99.99
2022-10-17T00:03:42.100Z,99.99
2022-10-17T00:04:42.039Z,99.99
2022-10-17T00:05:42.008Z,99.99
2022-10-17T00:06:41.893Z,99.99
2022-10-17T00:07:41.824Z,99.99
2022-10-17T00:08:41.764Z,99.99
2022-10-17T00:09:41.707Z,99.99
2022-10-17T00:10:41.644Z,99.99
2022-10-17T00:11:41.602Z,99.99
2022-10-17T00:12:41.526Z,99.99
2022-10-17T00:13:41.463Z,99.99
2022-10-17T00:14:41.390Z,99.99
2022-10-17T00:15:41.333Z,99.99
2022-10-17T00:16:41.282Z,99.99
2022-10-17T00:17:41.202Z,99.99
2022-10-17T00:18:41.133Z,99.99
2022-10-17T00:19:41.070Z,99.99
2022-10-17T00:20:41.093Z,99.99
2022-10-17T00:21:40.982Z,99.99
2022-10-17T00:22:40.896Z,99.99
2022-10-17T00:23:40.817Z,99.99
2022-10-17T00:24:40.790Z,99.99
2022-10-17T00:25:40.711Z,99.99
2022-10-17T00:26:40.657Z,99.99
2022-10-17T00:27:40.572Z,99.99
2022-10-17T00:28:40.566Z,99.99
2022-10-17T00:29:40.454Z,99.99
2022-10-17T00:30:40.396Z,99.99
2022-10-17T00:31:40.451Z,99.99
2022-10-17T00:32:40.325Z,99.99
2022-10-17T00:33:40.236Z,99.99
2022-10-17T00:34:40.148Z,99.99
2022-10-17T00:35:40.079Z,99.99
2022-10-17T00:36:40.024Z,99.99
2022-10-17T00:37:39.946Z,99.99
2022-10-17T00:38:39.940Z,99.99
2022-10-17T00:39:39.831Z,99.99
2022-10-17T00:40:39.761Z,99.99
2022-10-17T00:41:39.710Z,99.99
2022-10-17T00:42:39.632Z,99.99
2022-10-17T00:43:39.574Z,99.99
2022-10-17T00:44:39.512Z,99.99
2022-10-17T00:45:39.449Z,99.99
2022-10-17T00:46:39.435Z,99.99
2022-10-17T00:47:39.343Z,99.99
2022-10-17T00:48:39.347Z,99.99
2022-10-17T00:49:39.271Z,99.99
2022-10-17T00:50:39.134Z,99.99
2022-10-17T00:51:39.072Z,99.99
2022-10-17T00:52:39.023Z,99.99
2022-10-17T00:53:38.946Z,99.99
2022-10-17T00:54:38.983Z,99.99
2022-10-17T00:55:38.815Z,99.99
2022-10-17T00:56:38.757Z,99.99
2022-10-17T00:57:38.695Z,99.99
2022-10-17T00:58:38.631Z,99.99
2022-10-17T00:59:38.573Z,99.99
2022-10-17T01:00:38.505Z,99.99
2022-10-17T01:01:38.464Z,99.99
2022-10-17T01:02:38.425Z,99.99
2022-10-17T01:03:38.343Z,99.99
2022-10-17T01:04:38.259Z,99.99
2022-10-17T01:05:38.239Z,99.99
2022-10-17T01:06:38.168Z,99.99
2022-10-17T01:07:38.087Z,99.99
2022-10-17T01:08:38.139Z,99.99
2022-10-17T01:09:37.944Z,99.99
2022-10-17T01:10:37.881Z,99.99
2022-10-17T01:11:37.854Z,99.99
2022-10-17T01:12:37.800Z,99.99
2022-10-17T01:13:37.725Z,99.99
2022-10-17T01:14:37.642Z,99.99
2022-10-17T01:15:37.572Z,99.99
2022-10-17T01:16:37.549Z,99.99
2022-10-17T01:17:37.482Z,99.99
2022-10-17T01:18:37.384Z,99.99
2022-10-17T01:19:37.392Z,99.99
2022-10-17T01:20:37.254Z,99.99
2022-10-17T01:21:37.199Z,99.99
2022-10-17T01:22:37.133Z,99.99
2022-10-17T01:23:37.082Z,99.99
2022-10-17T01:24:37.035Z,99.99
2022-10-17T01:25:36.960Z,99.99
2022-10-17T01:26:36.881Z,99.99
2022-10-17T01:27:36.823Z,99.99
2022-10-17T01:28:36.870Z,99.99
2022-10-17T01:29:36.727Z,99.99
2022-10-17T01:30:36.680Z,99.99
2022-10-17T01:31:36.609Z,99.99
2022-10-17T01:32:36.507Z,99.99
2022-10-17T01:33:36.475Z,99.99
2022-10-17T01:36:08.482Z,99.99
2022-10-17T01:37:08.400Z,99.99
2022-10-17T01:38:08.376Z,99.99
2022-10-17T01:39:08.271Z,99.99
2022-10-17T01:40:08.240Z,99.99
2022-10-17T01:41:08.146Z,99.99
2022-10-17T01:42:08.094Z,99.99
2022-10-17T01:43:08.051Z,99.99
2022-10-17T01:44:07.965Z,99.99
2022-10-17T01:45:07.923Z,99.99
2022-10-17T01:46:07.859Z,99.99
2022-10-17T01:47:07.795Z,99.99
2022-10-17T01:48:07.712Z,99.99
2022-10-17T01:49:07.656Z,99.99
2022-10-17T01:50:07.615Z,99.99
2022-10-17T01:51:07.516Z,99.99
2022-10-17T01:52:07.497Z,99.99
2022-10-17T01:53:07.391Z,99.99
2022-10-17T01:54:07.347Z,99.99
2022-10-17T01:55:07.268Z,99.99
2022-10-17T01:56:07.200Z,99.99
2022-10-17T01:57:07.148Z,99.99
2022-10-17T01:58:07.078Z,99.99
2022-10-17T01:59:07.036Z,99.99
2022-10-17T02:00:06.972Z,99.99
2022-10-17T02:01:07.076Z,99.99
2022-10-17T02:02:06.847Z,99.99
2022-10-17T02:03:06.765Z,99.99
2022-10-17T02:04:06.766Z,99.99
2022-10-17T02:05:06.690Z,99.99
2022-10-17T02:06:06.603Z,99.99
2022-10-17T02:07:06.543Z,99.99
2022-10-17T02:08:06.466Z,99.99
2022-10-17T02:09:06.408Z,99.99
2022-10-17T02:10:06.341Z,99.99
2022-10-17T02:11:06.298Z,99.99
2022-10-17T02:12:06.245Z,99.99
2022-10-17T02:13:06.207Z,99.99
2022-10-17T02:14:06.191Z,99.99
2022-10-17T02:15:06.047Z,99.99
2022-10-17T02:16:05.956Z,99.99
2022-10-17T02:17:05.898Z,99.99
2022-10-17T02:18:05.817Z,99.99
2022-10-17T02:19:05.769Z,99.99
2022-10-17T02:20:05.730Z,99.99
2022-10-17T02:21:05.654Z,99.99
2022-10-17T02:22:05.577Z,99.99
2022-10-17T02:23:05.544Z,99.99
2022-10-17T02:24:05.450Z,99.99
2022-10-17T02:25:05.384Z,99.99
2022-10-17T02:26:05.317Z,99.99
2022-10-17T02:27:05.306Z,99.99
2022-10-17T02:28:05.206Z,99.99
2022-10-17T02:29:05.209Z,99.99
2022-10-17T02:30:05.118Z,99.99
2022-10-17T02:31:05.038Z,99.99
2022-10-17T02:32:04.959Z,99.99
2022-10-17T02:33:04.895Z,99.99
2022-10-17T02:34:04.850Z,99.99
2022-10-17T02:35:04.773Z,99.99
2022-10-17T02:36:04.705Z,99.99
2022-10-17T02:37:04.649Z,99.99
2022-10-17T02:38:04.596Z,99.99
2022-10-17T02:39:04.533Z,99.99
2022-10-17T02:40:04.462Z,99.99
2022-10-17T02:41:04.406Z,99.99
2022-10-17T02:42:04.310Z,99.99
2022-10-17T02:43:04.295Z,99.99
2022-10-17T02:44:04.198Z,99.99
2022-10-17T02:45:04.142Z,99.99
2022-10-17T02:46:04.086Z,99.99
2022-10-17T02:47:04.024Z,99.99
2022-10-17T02:48:03.985Z,99.99
2022-10-17T02:49:03.896Z,99.99
2022-10-17T02:50:03.811Z,99.99
2022-10-17T02:51:03.750Z,99.99
2022-10-17T02:52:03.716Z,99.99
2022-10-17T02:53:03.637Z,99.99
2022-10-17T02:54:03.570Z,99.99
2022-10-17T02:55:03.546Z,99.99
2022-10-17T02:56:03.443Z,99.99
2022-10-17T02:57:03.386Z,99.99
2022-10-17T02:58:03.308Z,99.99
2022-10-17T02:59:03.286Z,99.99
2022-10-17T03:00:03.186Z,99.99
2022-10-17T03:01:03.186Z,99.99
2022-10-17T03:02:03.065Z,99.99
2022-10-17T03:03:03.053Z,99.99
2022-10-17T03:04:02.965Z,99.99
2022-10-17T03:05:02.873Z,99.99
2022-10-17T03:06:02.836Z,99.99
2022-10-17T03:07:02.776Z,99.99
2022-10-17T03:08:02.716Z,99.99
2022-10-17T03:09:02.669Z,99.99
2022-10-17T03:10:02.563Z,99.99
2022-10-17T03:11:02.510Z,99.99
2022-10-17T03:12:02.481Z,99.99
2022-10-17T03:13:02.395Z,99.99
2022-10-17T03:14:02.325Z,99.99
2022-10-17T03:15:02.272Z,99.99
2022-10-17T03:16:02.204Z,99.99
2022-10-17T03:17:02.139Z,99.99
2022-10-17T03:18:02.094Z,99.99
2022-10-17T03:19:02.019Z,99.99
2022-10-17T03:20:01.946Z,99.99
2022-10-17T03:21:01.902Z,99.99
2022-10-17T03:22:01.816Z,99.99
2022-10-17T03:23:01.763Z,99.99
2022-10-17T03:24:01.677Z,99.99
2022-10-17T03:25:01.645Z,99.99
2022-10-17T03:26:01.590Z,99.99
2022-10-17T03:27:01.501Z,99.99
2022-10-17T03:28:01.442Z,99.99
2022-10-17T03:29:01.451Z,99.99
2022-10-17T03:30:01.324Z,99.99
2022-10-17T03:31:01.249Z,99.99
2022-10-17T03:32:01.249Z,99.99
2022-10-17T03:33:01.113Z,99.99
2022-10-17T03:34:01.117Z,99.99
2022-10-17T03:35:00.995Z,99.99
2022-10-17T03:36:00.956Z,99.99
2022-10-17T03:37:00.869Z,99.99
2022-10-17T03:38:00.813Z,99.99
2022-10-17T03:39:00.749Z,99.99
2022-10-17T03:40:00.679Z,99.99
2022-10-17T03:41:00.647Z,99.99
2022-10-17T03:42:00.585Z,99.99
2022-10-17T03:43:00.494Z,99.99
2022-10-17T03:44:00.474Z,99.99
2022-10-17T03:45:00.384Z,99.99
2022-10-17T03:46:00.376Z,99.99
2022-10-17T03:47:00.283Z,99.99
2022-10-17T03:48:00.199Z,99.99
2022-10-17T03:49:00.139Z,99.99
2022-10-17T03:50:00.071Z,99.99
2022-10-17T03:50:59.990Z,99.99
2022-10-17T03:51:59.936Z,99.99
2022-10-17T03:52:59.917Z,99.99
2022-10-17T03:53:59.807Z,99.99
2022-10-17T03:54:59.763Z,99.99
2022-10-17T03:55:59.707Z,99.99
2022-10-17T03:56:59.632Z,99.99
2022-10-17T03:57:59.567Z,99.99
2022-10-17T03:58:59.514Z,99.99
2022-10-17T03:59:59.452Z,99.99
2022-10-17T04:00:59.419Z,99.99
2022-10-17T04:01:59.293Z,99.99
2022-10-17T04:02:59.293Z,99.99
2022-10-17T04:03:59.196Z,99.99
2022-10-17T04:04:59.111Z,99.99
2022-10-17T04:05:59.058Z,99.99
2022-10-17T04:06:59.027Z,99.99
2022-10-17T04:08:01.078Z,99.99
2022-10-17T04:08:58.924Z,99.99
2022-10-17T04:09:58.793Z,99.99
2022-10-17T04:10:58.741Z,99.99
2022-10-17T04:11:58.695Z,99.99
2022-10-17T04:12:58.654Z,99.99
2022-10-17T04:13:58.561Z,99.99
2022-10-17T04:14:58.506Z,99.99
2022-10-17T04:15:58.488Z,99.99
2022-10-17T04:16:58.671Z,99.99
2022-10-17T04:17:58.338Z,99.99
2022-10-17T04:18:58.233Z,99.99
2022-10-17T04:19:58.206Z,99.99
2022-10-17T04:20:58.123Z,99.99
2022-10-17T04:21:58.060Z,99.99
2022-10-17T04:22:57.993Z,99.99
2022-10-17T04:23:57.921Z,99.99
2022-10-17T04:24:57.872Z,99.99
2022-10-17T04:25:57.838Z,99.99
2022-10-17T04:26:57.726Z,99.99
2022-10-17T04:27:57.663Z,99.99
2022-10-17T04:28:57.602Z,99.99
2022-10-17T04:29:57.548Z,99.99
2022-10-17T04:30:57.500Z,99.99
2022-10-17T04:31:57.418Z,99.99
2022-10-17T04:32:57.353Z,99.99
2022-10-17T04:33:57.326Z,99.99
2022-10-17T04:34:57.226Z,99.99
2022-10-17T04:35:57.215Z,99.99
2022-10-17T04:36:57.112Z,99.99
2022-10-17T04:37:57.045Z,99.99
2022-10-17T04:38:57.008Z,99.99
2022-10-17T04:39:56.930Z,99.99
2022-10-17T04:40:56.891Z,99.99
2022-10-17T04:41:56.782Z,99.99
2022-10-17T04:42:56.721Z,99.99
2022-10-17T04:43:56.676Z,99.99
2022-10-17T04:44:56.618Z,99.99
2022-10-17T04:45:56.616Z,99.99
2022-10-17T04:46:56.493Z,99.99
2022-10-17T04:47:56.412Z,99.99
2022-10-17T04:48:56.338Z,99.99
2022-10-17T04:49:56.291Z,99.99
2022-10-17T04:50:56.235Z,99.99
2022-10-17T04:51:56.151Z,99.99
2022-10-17T04:52:56.097Z,99.99
2022-10-17T04:53:56.070Z,99.99
2022-10-17T04:54:56.008Z,99.99
2022-10-17T04:55:55.920Z,99.99
2022-10-17T04:56:55.899Z,99.99
2022-10-17T04:57:55.813Z,99.99
2022-10-17T04:58:55.753Z,99.99
2022-10-17T04:59:55.704Z,99.99
2022-10-17T05:00:55.651Z,99.99
2022-10-17T05:01:55.532Z,99.99
2022-10-17T05:02:55.466Z,99.99
2022-10-17T05:03:55.453Z,99.99
2022-10-17T05:04:55.339Z,99.99
2022-10-17T05:05:55.291Z,99.99
2022-10-17T05:06:55.235Z,99.99
2022-10-17T05:07:55.167Z,99.99
2022-10-17T05:08:55.091Z,99.99
2022-10-17T05:09:55.037Z,99.99
2022-10-17T05:10:54.995Z,99.99
2022-10-17T05:11:54.945Z,99.99
2022-10-17T05:12:54.840Z,99.99
2022-10-17T05:13:54.821Z,99.99
2022-10-17T05:14:54.706Z,99.99
2022-10-17T05:15:54.707Z,99.99
2022-10-17T05:16:54.636Z,99.99
2022-10-17T05:17:54.556Z,99.99
2022-10-17T05:18:54.480Z,99.99
2022-10-17T05:19:54.503Z,99.99
2022-10-17T05:20:54.354Z,99.99
2022-10-17T05:21:54.292Z,99.99
2022-10-17T05:22:54.202Z,99.99
2022-10-17T05:23:54.148Z,99.99
2022-10-17T05:24:54.113Z,99.99
2022-10-17T05:25:54.042Z,99.99
2022-10-17T05:26:53.958Z,99.99
2022-10-17T05:27:53.903Z,99.99
2022-10-17T05:28:53.974Z,99.99
2022-10-17T05:29:53.788Z,99.99
2022-10-17T05:30:53.756Z,99.99
2022-10-17T05:31:53.699Z,99.99
2022-10-17T05:32:53.611Z,99.99
2022-10-17T05:33:53.543Z,99.99
2022-10-17T05:34:53.448Z,99.99
2022-10-17T05:35:53.409Z,99.99
2022-10-17T05:36:53.355Z,99.99
2022-10-17T05:37:53.305Z,99.99
2022-10-17T05:38:53.196Z,99.99
2022-10-17T05:39:53.156Z,99.99
2022-10-17T05:40:53.108Z,99.99
2022-10-17T05:41:53.035Z,99.99
2022-10-17T05:42:52.975Z,99.99
2022-10-17T05:43:52.885Z,99.99
2022-10-17T05:44:52.865Z,99.99
2022-10-17T05:45:52.810Z,99.99
2022-10-17T05:46:52.769Z,99.99
2022-10-17T05:47:52.673Z,99.99
2022-10-17T05:48:52.584Z,99.99
2022-10-17T05:49:52.747Z,99.99
2022-10-17T05:50:52.470Z,99.99
2022-10-17T05:51:52.426Z,99.99
2022-10-17T05:52:52.341Z,99.99
2022-10-17T05:53:52.306Z,99.99
2022-10-17T05:54:52.239Z,99.99
2022-10-17T05:55:52.156Z,99.99
2022-10-17T05:56:52.079Z,99.99
2022-10-17T05:57:52.033Z,99.99
2022-10-17T05:58:55.142Z,99.99
2022-10-17T05:59:51.939Z,99.99
2022-10-17T06:00:51.843Z,99.99
2022-10-17T06:01:51.857Z,99.99
2022-10-17T06:02:51.702Z,99.99
2022-10-17T06:03:51.640Z,99.99
2022-10-17T06:04:51.617Z,99.99
2022-10-17T06:05:51.540Z,99.99
2022-10-17T06:06:51.506Z,99.99
2022-10-17T06:07:51.395Z,99.99
2022-10-17T06:08:51.328Z,99.99
2022-10-17T06:09:51.276Z,99.99
2022-10-17T06:10:51.208Z,99.99
2022-10-17T06:11:51.160Z,99.99
2022-10-17T06:12:51.063Z,99.99
2022-10-17T06:13:51.065Z,99.99
2022-10-17T06:14:50.974Z,99.99
2022-10-17T06:15:50.911Z,99.99
2022-10-17T06:16:50.856Z,99.99
2022-10-17T06:17:50.784Z,99.99
2022-10-17T06:18:50.726Z,99.99
2022-10-17T06:19:50.663Z,99.99
2022-10-17T06:20:50.559Z,99.99
2022-10-17T06:21:50.525Z,99.99
2022-10-17T06:22:50.448Z,99.99
2022-10-17T06:23:50.391Z,99.99
2022-10-17T06:24:50.332Z,99.99
2022-10-17T06:25:50.294Z,99.99
2022-10-17T06:26:50.207Z,99.99
2022-10-17T06:27:50.232Z,99.99
2022-10-17T06:28:50.135Z,99.99
2022-10-17T06:29:50.037Z,99.99
2022-10-17T06:30:49.954Z,99.99
2022-10-17T06:31:49.916Z,99.99
2022-10-17T06:32:49.833Z,99.99
2022-10-17T06:33:49.810Z,99.99
2022-10-17T06:34:49.717Z,99.99
2022-10-17T06:35:49.672Z,99.99
2022-10-17T06:36:49.638Z,99.99
2022-10-17T06:37:49.527Z,99.99
2022-10-17T06:38:49.480Z,99.99
2022-10-17T06:39:49.383Z,99.99
2022-10-17T06:40:49.361Z,99.99
2022-10-17T06:41:49.275Z,99.99
2022-10-17T06:42:49.198Z,99.99
2022-10-17T06:43:49.181Z,99.99
2022-10-17T06:44:49.147Z,99.99
2022-10-17T06:45:49.065Z,99.99
2022-10-17T06:46:48.961Z,99.99
2022-10-17T06:47:48.885Z,99.99
2022-10-17T06:48:48.848Z,99.99
2022-10-17T06:49:48.784Z,99.99
2022-10-17T06:50:48.696Z,99.99
2022-10-17T06:51:48.653Z,99.99
2022-10-17T06:52:48.584Z,99.99
2022-10-17T06:53:48.525Z,99.99
2022-10-17T06:54:48.479Z,99.99
2022-10-17T06:55:48.401Z,99.99
2022-10-17T06:56:48.341Z,99.99
2022-10-17T06:57:48.274Z,99.99
2022-10-17T06:58:48.216Z,99.99
2022-10-17T06:59:48.140Z,99.99
2022-10-17T07:00:48.310Z,99.99
2022-10-17T07:01:48.017Z,99.99
2022-10-17T07:02:47.962Z,99.99
2022-10-17T07:03:47.944Z,99.99
2022-10-17T07:04:47.829Z,99.99
2022-10-17T07:05:47.775Z,99.99
2022-10-17T07:06:47.776Z,99.99
2022-10-17T07:07:50.971Z,99.99
2022-10-17T07:08:47.618Z,99.99
2022-10-17T07:09:47.571Z,99.99
2022-10-17T07:10:47.489Z,99.99
2022-10-17T07:11:47.415Z,99.99
2022-10-17T07:12:47.357Z,99.99
2022-10-17T07:13:47.321Z,99.99
2022-10-17T07:14:47.269Z,99.99
2022-10-17T07:15:47.243Z,99.99
2022-10-17T07:16:47.138Z,99.99
2022-10-17T07:17:47.062Z,99.99
2022-10-17T07:18:46.977Z,99.99
2022-10-17T07:19:46.926Z,99.99
2022-10-17T07:20:46.885Z,99.99
2022-10-17T07:21:46.837Z,99.99
2022-10-17T07:22:46.747Z,99.99
2022-10-17T07:23:46.669Z,99.99
2022-10-17T07:24:46.693Z,99.99
2022-10-17T07:25:46.562Z,99.99
2022-10-17T07:26:46.505Z,99.99
2022-10-17T07:27:46.417Z,99.99
2022-10-17T07:28:46.492Z,99.99
2022-10-17T07:29:46.307Z,99.99
2022-10-17T07:30:49.462Z,99.99
2022-10-17T07:31:46.201Z,99.99
2022-10-17T07:32:46.123Z,99.99
2022-10-17T07:34:46.059Z,99.99
2022-10-17T07:35:45.941Z,99.99
2022-10-17T07:36:45.904Z,99.99
2022-10-17T07:37:45.846Z,99.99
2022-10-17T07:38:45.792Z,99.99
2022-10-17T07:39:45.723Z,99.99
2022-10-17T07:40:45.662Z,99.99
2022-10-17T07:41:45.605Z,99.99
2022-10-17T07:42:45.520Z,99.99
2022-10-17T07:43:45.483Z,99.99
2022-10-17T07:44:45.432Z,99.99
2022-10-17T07:45:45.406Z,99.99
2022-10-17T07:46:45.263Z,99.99
2022-10-17T07:47:45.240Z,99.99
2022-10-17T07:48:45.163Z,99.99
2022-10-17T07:49:45.100Z,99.99
2022-10-17T07:50:45.053Z,99.99
2022-10-17T07:52:44.914Z,99.99
2022-10-17T07:53:47.937Z,99.99
2022-10-17T07:54:44.795Z,99.99
2022-10-17T07:55:44.780Z,99.99
2022-10-17T07:56:44.703Z,99.99
2022-10-17T07:57:44.611Z,99.99
2022-10-17T07:58:44.604Z,99.99
2022-10-17T07:59:44.491Z,99.99
2022-10-17T08:00:44.729Z,99.99
2022-10-17T08:01:44.398Z,99.99
2022-10-17T08:02:44.304Z,99.99
2022-10-17T08:03:44.246Z,99.99
2022-10-17T08:04:44.233Z,99.99
2022-10-17T08:05:44.169Z,99.99
2022-10-17T08:06:44.112Z,99.99
2022-10-17T08:07:44.031Z,99.99
2022-10-17T08:08:44.005Z,99.99
2022-10-17T08:09:43.930Z,99.99
2022-10-17T08:10:43.851Z,99.99
2022-10-17T08:11:43.775Z,99.99
2022-10-17T08:12:43.750Z,99.99
2022-10-17T08:13:43.688Z,99.99
2022-10-17T08:14:43.609Z,99.99
2022-10-17T08:15:43.555Z,99.99
2022-10-17T08:16:43.474Z,99.99
2022-10-17T08:17:43.500Z,99.99
2022-10-17T08:18:43.371Z,99.99
2022-10-17T08:19:43.354Z,99.99
2022-10-17T08:20:43.322Z,99.99
2022-10-17T08:21:43.261Z,99.99
2022-10-17T08:22:43.155Z,99.99
2022-10-17T08:23:43.121Z,99.99
2022-10-17T08:24:43.138Z,99.99
2022-10-17T08:25:43.009Z,99.99
2022-10-17T08:26:44.017Z,99.99
2022-10-17T08:27:42.899Z,99.99
2022-10-17T08:28:42.855Z,99.99
2022-10-17T08:29:42.747Z,99.99
2022-10-17T08:30:42.729Z,99.99
2022-10-17T08:31:46.450Z,99.99
2022-10-17T08:32:42.584Z,99.99
2022-10-17T08:33:42.509Z,99.99
2022-10-17T08:34:42.520Z,99.99
2022-10-17T08:35:42.433Z,99.99
2022-10-17T08:36:42.351Z,99.99
2022-10-17T08:37:42.276Z,99.99
2022-10-17T08:38:43.497Z,99.99
2022-10-17T08:39:42.189Z,99.99
2022-10-17T08:40:42.156Z,99.99
2022-10-17T08:41:42.049Z,99.99
2022-10-17T08:42:42.017Z,99.99
2022-10-17T08:43:41.985Z,99.99
2022-10-17T08:44:41.908Z,99.99
2022-10-17T08:45:41.839Z,99.99
2022-10-17T08:46:41.815Z,99.99
2022-10-17T08:47:41.741Z,99.99
2022-10-17T08:48:44.137Z,99.99
2022-10-17T08:49:41.627Z,99.99
2022-10-17T08:50:41.561Z,99.99
2022-10-17T08:51:41.513Z,99.99
2022-10-17T08:52:41.447Z,99.95
2022-10-17T08:53:41.400Z,99.99
2022-10-17T08:54:41.388Z,99.99
2022-10-17T08:55:44.505Z,99.99
2022-10-17T08:56:49.025Z,99.31
2022-10-17T08:57:41.174Z,99.99
2022-10-17T08:58:41.131Z,99.99
2022-10-17T08:59:41.062Z,99.99
2022-10-17T09:00:41.005Z,99.99
2022-10-17T09:01:40.947Z,99.99
2022-10-17T09:02:40.938Z,99.99
2022-10-17T09:03:40.848Z,99.99
2022-10-17T09:04:40.838Z,99.99
2022-10-17T09:05:40.787Z,99.99
2022-10-17T09:06:40.689Z,99.99
2022-10-17T09:07:40.666Z,99.99
2022-10-17T09:08:40.559Z,99.99
2022-10-17T09:09:40.496Z,99.99
2022-10-17T09:10:40.457Z,99.99
2022-10-17T09:11:40.421Z,99.99
2022-10-17T09:12:40.351Z,99.99
2022-10-17T09:13:40.290Z,99.99
2022-10-17T09:14:40.241Z,99.99
2022-10-17T09:15:40.240Z,99.99
2022-10-17T09:16:40.165Z,99.99
2022-10-17T09:17:40.080Z,99.55
2022-10-17T09:18:40.035Z,99.27
2022-10-17T09:19:39.929Z,99.99
2022-10-17T09:20:39.904Z,99.12
2022-10-17T09:21:39.850Z,98.20
2022-10-17T09:22:39.787Z,97.86
2022-10-17T09:23:41.824Z,97.37
2022-10-17T09:24:39.709Z,97.08
2022-10-17T09:25:39.639Z,95.92
2022-10-17T09:26:39.594Z,96.41
2022-10-17T09:27:46.743Z,97.66
2022-10-17T09:29:44.078Z,96.94
2022-10-17T09:30:45.503Z,96.89
2022-10-17T09:31:43.925Z,97.76
2022-10-17T09:32:43.748Z,98.30
2022-10-17T09:33:55.543Z,97.91
2022-10-17T09:34:43.659Z,97.23
2022-10-17T09:35:43.629Z,96.74
2022-10-17T09:36:43.547Z,97.13
2022-10-17T09:37:43.486Z,99.85
2022-10-17T09:38:43.424Z,98.35
2022-10-17T09:39:43.365Z,99.41
2022-10-17T09:40:43.308Z,98.00
2022-10-17T09:41:46.604Z,97.42
2022-10-17T09:42:43.275Z,97.86
2022-10-17T09:43:43.147Z,96.89
2022-10-17T09:44:43.087Z,96.94
2022-10-17T09:45:43.034Z,96.79
2022-10-17T09:46:42.989Z,95.38
2022-10-17T09:47:42.924Z,94.55
2022-10-17T09:48:42.904Z,94.46
2022-10-17T09:49:42.871Z,93.34
2022-10-17T09:50:42.777Z,94.07
2022-10-17T09:51:42.754Z,96.55
2022-10-17T09:52:42.655Z,98.30
2022-10-17T09:53:42.629Z,98.73
2022-10-17T09:54:42.596Z,97.66
2022-10-17T09:55:42.556Z,96.69
2022-10-17T09:56:42.475Z,96.11
2022-10-17T09:57:42.393Z,96.55
2022-10-17T09:58:42.339Z,96.98
2022-10-17T09:59:42.354Z,95.48
2022-10-17T10:00:42.339Z,94.26
2022-10-17T10:01:42.189Z,93.98
2022-10-17T10:02:42.127Z,95.82
2022-10-17T10:03:42.134Z,96.06
2022-10-17T10:05:03.212Z,96.11
2022-10-17T10:05:42.021Z,96.89
2022-10-17T10:06:41.926Z,96.94
2022-10-17T10:07:41.907Z,96.74
2022-10-17T10:08:41.815Z,95.33
2022-10-17T10:09:41.791Z,94.95
2022-10-17T10:10:41.694Z,96.55
2022-10-17T10:11:41.665Z,96.45
2022-10-17T10:12:41.620Z,96.84
2022-10-17T10:13:41.602Z,96.55
2022-10-17T10:14:42.725Z,96.40
2022-10-17T10:15:41.470Z,96.01
2022-10-17T10:16:41.414Z,95.33
2022-10-17T10:17:41.354Z,95.53
2022-10-17T10:18:41.276Z,96.79
2022-10-17T10:19:41.231Z,97.47
2022-10-17T10:20:41.149Z,97.66
2022-10-17T10:21:44.009Z,98.15
2022-10-17T10:22:41.075Z,97.52
2022-10-17T10:23:41.003Z,97.13
2022-10-17T10:24:40.953Z,97.23
2022-10-17T10:25:40.886Z,96.84
2022-10-17T10:26:40.892Z,97.03
2022-10-17T10:27:40.796Z,96.16
2022-10-17T10:28:40.784Z,96.45
2022-10-17T10:29:40.682Z,96.69
2022-10-17T10:30:40.644Z,97.86
2022-10-17T10:31:40.685Z,97.56
2022-10-17T10:32:40.507Z,97.23
2022-10-17T10:33:41.707Z,96.98
2022-10-17T10:34:40.394Z,95.33
2022-10-17T10:35:40.393Z,95.92
2022-10-17T10:36:40.334Z,95.57
2022-10-17T10:37:40.231Z,94.31
2022-10-17T10:38:40.212Z,93.58
2022-10-17T10:39:40.122Z,93.68
2022-10-17T10:40:40.085Z,93.00
2022-10-17T10:41:40.021Z,92.61
2022-10-17T10:42:39.970Z,91.58
2022-10-17T10:43:39.912Z,92.07
2022-10-17T10:44:39.854Z,91.74
2022-10-17T10:45:48.072Z,93.34
2022-10-17T10:46:39.738Z,93.73
2022-10-17T10:47:39.686Z,92.85
2022-10-17T10:48:39.632Z,93.73
2022-10-17T10:49:39.557Z,93.73
2022-10-17T10:50:44.375Z,93.10
2022-10-17T10:51:39.463Z,94.46
2022-10-17T10:52:39.454Z,94.70
2022-10-17T10:53:39.377Z,93.44
2022-10-17T10:55:39.271Z,94.32
2022-10-17T10:56:39.196Z,95.57
2022-10-17T10:57:39.147Z,95.53
2022-10-17T10:58:41.854Z,94.70
2022-10-17T10:59:39.014Z,92.32
2022-10-17T11:00:39.148Z,91.35
2022-10-17T11:01:38.928Z,93.15
2022-10-17T11:02:38.885Z,93.97
2022-10-17T11:03:38.826Z,92.56
2022-10-17T11:04:38.801Z,91.93
2022-10-17T11:05:38.737Z,92.12
2022-10-17T11:06:38.644Z,91.93
2022-10-17T11:07:38.610Z,91.93
2022-10-17T11:08:38.533Z,91.93
2022-10-17T11:09:38.473Z,91.98
2022-10-17T11:10:38.448Z,93.49
2022-10-17T11:11:38.364Z,95.19
2022-10-17T11:12:38.342Z,94.80
2022-10-17T11:13:38.250Z,95.77
2022-10-17T11:14:38.203Z,96.36
2022-10-17T11:15:38.162Z,96.50
2022-10-17T11:16:38.088Z,97.18
2022-10-17T11:17:38.038Z,97.42
2022-10-17T11:18:37.962Z,97.96
2022-10-17T11:19:37.918Z,98.54
2022-10-17T11:20:37.868Z,99.70
2022-10-17T11:21:37.889Z,99.55
2022-10-17T11:22:38.022Z,99.17
2022-10-17T11:23:37.688Z,99.99
2022-10-17T11:24:37.670Z,99.99
2022-10-17T11:25:37.589Z,99.94
2022-10-17T11:26:37.527Z,99.99
2022-10-17T11:27:37.469Z,99.99
2022-10-17T11:28:37.480Z,99.99
2022-10-17T11:29:37.426Z,99.99
2022-10-17T11:30:37.361Z,99.99
2022-10-17T11:31:37.252Z,99.99
2022-10-17T11:32:37.185Z,99.99
2022-10-17T11:33:37.134Z,99.99
2022-10-17T11:34:37.066Z,99.99
2022-10-17T11:35:37.029Z,99.99
2022-10-17T11:36:36.970Z,99.65
2022-10-17T11:37:36.902Z,99.85
2022-10-17T11:38:36.876Z,99.94
2022-10-17T11:39:36.838Z,98.83
2022-10-17T11:40:36.741Z,98.49
2022-10-17T11:41:36.692Z,98.97
2022-10-17T11:42:36.617Z,99.12
2022-10-17T11:43:36.575Z,99.99
2022-10-17T11:44:36.538Z,99.99
2022-10-17T11:45:36.490Z,99.99
2022-10-17T11:46:36.417Z,99.99
2022-10-17T11:47:36.330Z,99.99
2022-10-17T11:48:36.272Z,99.99
2022-10-17T11:49:39.895Z,99.90
2022-10-17T11:52:56.602Z,99.99
2022-10-17T11:53:36.020Z,99.99
2022-10-17T11:54:35.923Z,99.41
2022-10-17T11:55:35.892Z,99.99
2022-10-17T11:56:37.051Z,99.99
2022-10-17T11:57:35.818Z,99.99
2022-10-17T11:58:35.732Z,99.99
2022-10-17T11:59:35.648Z,99.99
2022-10-17T12:00:37.934Z,99.99
2022-10-17T12:01:35.539Z,99.99
2022-10-17T12:02:35.488Z,99.99
2022-10-17T12:03:35.434Z,99.60
2022-10-17T12:04:35.416Z,99.99
2022-10-17T12:05:35.321Z,99.99
2022-10-17T12:06:35.275Z,99.99
2022-10-17T12:07:35.249Z,99.99
2022-10-17T12:08:35.142Z,99.99
2022-10-17T12:09:35.094Z,99.99
2022-10-17T12:10:35.020Z,99.31
2022-10-17T12:11:34.960Z,99.80
2022-10-17T12:12:34.914Z,98.63
2022-10-17T12:13:34.861Z,97.81
2022-10-17T12:14:34.790Z,98.39
2022-10-17T12:15:34.758Z,97.96
2022-10-17T12:16:34.740Z,98.25
2022-10-17T12:17:34.628Z,97.86
2022-10-17T12:18:34.635Z,97.96
2022-10-17T12:19:34.512Z,98.35
2022-10-17T12:20:34.444Z,97.86
2022-10-17T12:21:34.386Z,97.71
2022-10-17T12:22:34.325Z,97.42
2022-10-17T12:23:34.339Z,97.71
2022-10-17T12:24:34.245Z,96.80
2022-10-17T12:25:34.186Z,97.38
2022-10-17T12:26:34.499Z,98.05
2022-10-17T12:27:34.045Z,98.05
2022-10-17T12:28:34.091Z,98.25
2022-10-17T12:29:33.929Z,98.35
2022-10-17T12:30:34.113Z,97.86
2022-10-17T12:31:34.378Z,98.15
2022-10-17T12:32:46.848Z,98.00
2022-10-17T12:33:33.692Z,97.52
2022-10-17T12:34:33.702Z,97.81
2022-10-17T12:35:33.610Z,98.30
2022-10-17T12:36:33.589Z,97.91
2022-10-17T12:37:33.458Z,97.81
2022-10-17T12:38:33.407Z,98.00
2022-10-17T12:39:33.366Z,97.33
2022-10-17T12:40:33.285Z,98.00
2022-10-17T12:41:33.231Z,98.05
2022-10-17T12:42:33.179Z,97.52
2022-10-17T12:43:33.191Z,98.15
2022-10-17T12:44:34.923Z,97.76
2022-10-17T12:45:33.009Z,97.96
2022-10-17T12:46:32.951Z,97.38
2022-10-17T12:47:32.903Z,97.57
2022-10-17T12:48:32.839Z,98.05
2022-10-17T12:49:32.783Z,98.35
2022-10-17T12:50:36.015Z,97.47
2022-10-17T12:51:37.459Z,97.67
2022-10-17T12:52:32.606Z,98.20
2022-10-17T12:53:32.542Z,97.57
2022-10-17T12:54:37.995Z,97.76
2022-10-17T12:55:32.509Z,98.05
2022-10-17T12:56:32.370Z,98.05
2022-10-17T12:57:32.400Z,97.76
2022-10-17T12:58:32.269Z,98.39
2022-10-17T12:59:32.183Z,98.10